Upstream stations:
Downstream station:
SHEF ID: DVDO2 Red River at US 183 Bridge
STATION TYPE:
Regulating: Stage = 9.00, Flow = 10940
PRECIP STAGE RIV-FLOW VOLTAGE BAT-LOAD
in ft cfs volt volt
Ccp-Rev Ccp-Rev Ccp-Rev Ccp-Rev Ccp-Rev
(US/Central)
12/04 00:00 0.00 5.61 513 12.60 12.27
12/04 01:00 0.00 5.61 513 12.59 12.26
12/04 02:00 0.00 5.61 513 12.58 12.25
12/04 03:00 0.00 5.61 513 12.55 12.23
12/04 04:00 0.00 5.62 519 12.53 12.21
12/04 05:00 0.00 5.62 519 12.50 12.19
12/04 06:00 0.00 5.62 519 12.48 12.17
12/04 07:00 0.00 5.62 519 12.45 12.14
12/04 08:00 0.00 5.62 519 12.45 12.11
12/04 09:00 0.00 5.62 519 12.88 12.12
12/04 10:00 0.00 5.62 519 13.57 12.63
12/04 11:00 0.00 5.62 519 13.85 13.21
12/04 12:00 0.00 5.62 519 14.18 13.52
12/04 13:00 0.00 5.62 519 14.21 13.84
12/04 14:00 0.00 5.61 513 14.03 13.82
12/04 15:00 0.00 5.61 513 13.97 13.69
12/04 16:00 0.00 5.61 513 13.76 13.63
12/04 17:00 0.00 5.61 513 13.42 13.41
12/04 18:00 0.00 5.61 513 12.96 13.01
12/04 19:00 0.00 5.61 513 12.67 12.57
12/04 20:00 0.00 5.62 519 12.65 12.31
12/04 21:00 0.00 5.62 519 12.63 12.31
12/04 22:00 0.00 5.62 519 12.62 12.30
12/04 23:00 0.00 5.62 519 12.60 12.27